Time;durP1;ratioP1;P1;durP2;ratioP2;P2;SDS_P1;SDS_P2;PMS_P1;PMS_P2;Temp;Humidity;BMP_temperature;BMP_pressure;BME280_temperature;BME280_humidity;BME280_pressure;Samples;Min_cycle;Max_cycle;Signal;HPM_P1;HPM_P2
2022/04/25 00:01:31;;;;;;;10.40;7.10;;;;;;;10.09;72.37;98925.13;130309;1267;109032;-71
2022/04/25 00:04:37;;;;;;;9.20;6.50;;;;;;;10.05;72.75;98921.05;130297;1267;108856;-72
2022/04/25 00:07:42;;;;;;;11.00;8.80;;;;;;;10.01;72.43;98925.52;130337;1267;108732;-72
2022/04/25 00:10:47;;;;;;;10.80;8.40;;;;;;;10.03;72.89;98921.45;130320;1267;108834;-73
2022/04/25 00:13:53;;;;;;;9.10;8.10;;;;;;;10.03;72.55;98923.34;130314;1267;108838;-72
2022/04/25 00:16:59;;;;;;;11.30;8.70;;;;;;;10.06;72.82;98924.07;130324;1267;108701;-72
2022/04/25 00:20:05;;;;;;;10.70;7.90;;;;;;;10.01;73.00;98923.99;130340;1266;108932;-72
2022/04/25 00:23:11;;;;;;;9.00;7.40;;;;;;;9.96;72.78;98925.67;130375;1267;108832;-71
2022/04/25 00:26:17;;;;;;;9.40;7.50;;;;;;;9.92;73.16;98921.61;130367;1267;108841;-72
2022/04/25 00:29:22;;;;;;;19.70;15.90;;;;;;;9.90;73.12;98917.80;130349;1267;108533;-72
2022/04/25 00:32:28;;;;;;;11.90;9.20;;;;;;;9.91;73.81;98916.96;130332;1267;108607;-72
2022/04/25 00:35:33;;;;;;;12.50;10.20;;;;;;;9.89;73.53;98910.66;130349;1267;108641;-72
2022/04/25 00:38:39;;;;;;;11.60;9.00;;;;;;;9.89;73.39;98907.01;130319;1267;108856;-71
2022/04/25 00:41:45;;;;;;;10.90;8.90;;;;;;;9.90;73.52;98900.06;130321;1267;108940;-71
2022/04/25 00:44:50;;;;;;;20.50;15.20;;;;;;;9.86;73.66;98899.49;130385;1267;108654;-71
2022/04/25 00:47:58;;;;;;;12.50;10.20;;;;;;;9.87;73.44;98896.39;130350;1267;108738;-73
2022/04/25 00:51:03;;;;;;;12.50;10.50;;;;;;;9.87;73.49;98903.45;130386;1267;108631;-72
2022/04/25 00:54:09;;;;;;;11.90;9.90;;;;;;;9.91;73.26;98902.41;130354;1267;108804;-73
2022/04/25 00:57:15;;;;;;;10.50;8.70;;;;;;;9.93;73.53;98907.52;130365;1267;108899;-74
2022/04/25 01:00:21;;;;;;;9.40;8.50;;;;;;;9.94;73.50;98906.55;130369;1267;108661;-72
2022/04/25 01:03:26;;;;;;;8.90;7.30;;;;;;;9.89;73.12;98905.54;130398;1267;108656;-72
2022/04/25 01:06:32;;;;;;;8.10;6.50;;;;;;;9.88;73.68;98910.44;130344;1267;108757;-72
2022/04/25 01:09:38;;;;;;;7.60;5.50;;;;;;;9.86;73.84;98911.73;130346;1267;108598;-75
2022/04/25 01:12:43;;;;;;;8.90;7.00;;;;;;;9.83;73.64;98904.05;130402;1267;108664;-71
2022/04/25 01:15:49;;;;;;;9.20;6.60;;;;;;;9.85;73.74;98900.45;130373;1267;108652;-75
2022/04/25 01:18:54;;;;;;;7.40;6.30;;;;;;;9.87;73.85;98903.98;130398;1267;108802;-74
2022/04/25 01:22:02;;;;;;;8.40;6.90;;;;;;;9.84;73.75;98900.34;130398;1267;107606;-73
2022/04/25 01:28:38;;;;;;;11.70;8.60;;;;;;;9.75;74.18;98900.90;130125;1267;107424;-73
2022/04/25 01:31:44;;;;;;;11.80;9.10;;;;;;;9.69;74.13;98892.59;130454;1267;108818;-73
2022/04/25 01:34:50;;;;;;;7.70;6.70;;;;;;;9.63;74.85;98892.88;130338;1267;107637;-72
2022/04/25 01:37:55;;;;;;;12.30;10.00;;;;;;;9.59;74.54;98893.78;130440;1267;108649;-72
2022/04/25 01:41:01;;;;;;;15.70;11.50;;;;;;;9.64;74.29;98891.58;130351;1267;108761;-72
2022/04/25 01:44:07;;;;;;;10.50;7.60;;;;;;;9.69;74.59;98892.08;130385;1267;108660;-73
2022/04/25 01:47:13;;;;;;;9.80;8.30;;;;;;;9.63;74.33;98891.61;130408;1267;107796;-73
2022/04/25 01:50:18;;;;;;;9.70;7.90;;;;;;;9.59;74.28;98889.30;130345;1267;108938;-70
2022/04/25 01:53:24;;;;;;;6.70;5.10;;;;;;;9.58;74.36;98888.74;130282;1267;108811;-71
2022/04/25 01:56:29;;;;;;;6.10;5.20;;;;;;;9.57;74.44;98890.20;130428;1267;108746;-72
2022/04/25 01:59:35;;;;;;;7.30;6.40;;;;;;;9.58;74.80;98887.84;130410;1267;109028;-72
2022/04/25 02:02:41;;;;;;;8.20;7.10;;;;;;;9.60;74.70;98886.92;130440;1266;108864;-72
2022/04/25 02:05:46;;;;;;;10.80;8.50;;;;;;;9.60;74.27;98884.52;130415;1267;108661;-73
2022/04/25 02:08:52;;;;;;;8.00;6.20;;;;;;;9.61;74.57;98883.84;130378;1267;109358;-75
2022/04/25 02:11:57;;;;;;;6.10;5.20;;;;;;;9.58;74.89;98884.27;130374;1267;108834;-74
2022/04/25 02:15:03;;;;;;;7.50;5.90;;;;;;;9.52;74.89;98890.85;130395;1267;108777;-75
2022/04/25 02:18:09;;;;;;;7.80;6.00;;;;;;;9.47;74.85;98889.80;130427;1267;108671;-74
2022/04/25 02:21:14;;;;;;;7.90;6.50;;;;;;;9.50;74.84;98890.36;130375;1267;108913;-75
2022/04/25 02:24:20;;;;;;;6.90;6.10;;;;;;;9.51;74.95;98889.36;130392;1267;108829;-74
2022/04/25 02:27:26;;;;;;;8.10;6.10;;;;;;;9.54;74.80;98893.66;130382;1267;108972;-75
2022/04/25 02:30:32;;;;;;;9.90;7.50;;;;;;;9.55;74.70;98889.10;130387;1267;107696;-74
2022/04/25 02:33:37;;;;;;;6.50;5.10;;;;;;;9.53;74.72;98886.98;130419;1267;107017;-73
2022/04/25 02:36:43;;;;;;;5.60;4.70;;;;;;;9.44;75.26;98889.66;130380;1267;108850;-75
2022/04/25 02:39:48;;;;;;;6.40;5.20;;;;;;;9.37;75.40;98890.64;130372;1267;108734;-73
2022/04/25 02:42:54;;;;;;;12.40;9.20;;;;;;;9.34;75.29;98892.00;130359;1267;106965;-74
2022/04/25 02:45:59;;;;;;;10.40;8.40;;;;;;;9.37;75.12;98895.58;130483;1267;108688;-73
2022/04/25 02:49:05;;;;;;;6.80;5.50;;;;;;;9.39;75.16;98894.30;130267;1268;108962;-73
2022/04/25 02:52:10;;;;;;;15.10;12.00;;;;;;;9.37;75.27;98896.48;130431;1267;108429;-74
2022/04/25 02:55:16;;;;;;;25.60;19.30;;;;;;;9.37;75.09;98898.23;130399;1267;108656;-73
2022/04/25 02:58:22;;;;;;;11.10;8.80;;;;;;;9.42;74.95;98901.02;130365;1265;108838;-74
2022/04/25 03:01:28;;;;;;;23.40;18.00;;;;;;;9.45;75.32;98902.14;130430;1267;108670;-75
2022/04/25 03:04:34;;;;;;;12.90;9.60;;;;;;;9.44;74.83;98904.17;130409;1267;109139;-75
2022/04/25 03:07:40;;;;;;;14.70;11.90;;;;;;;9.51;75.10;98904.85;130373;1267;108626;-77
2022/04/25 03:10:46;;;;;;;7.00;5.50;;;;;;;9.49;74.98;98908.42;130445;1267;108955;-76
2022/04/25 03:13:52;;;;;;;18.60;15.60;;;;;;;9.45;75.06;98910.11;131033;1267;107679;-76
2022/04/25 03:16:58;;;;;;;13.20;9.60;;;;;;;9.43;74.91;98907.60;130407;1267;108846;-76
2022/04/25 03:20:04;;;;;;;10.30;7.90;;;;;;;9.47;75.13;98911.16;130338;1267;107645;-76
2022/04/25 03:23:10;;;;;;;7.30;5.90;;;;;;;9.53;74.92;98910.82;130341;1267;108547;-76
2022/04/25 03:26:15;;;;;;;6.90;5.50;;;;;;;9.53;75.12;98910.22;130365;1267;107603;-76
2022/04/25 03:29:21;;;;;;;7.50;6.20;;;;;;;9.55;75.03;98906.45;130390;1267;108712;-76
2022/04/25 03:32:26;;;;;;;8.50;6.10;;;;;;;9.58;74.80;98907.38;130391;1267;108539;-76
2022/04/25 03:35:32;;;;;;;7.20;6.00;;;;;;;9.60;74.87;98908.65;130445;1267;109237;-76
2022/04/25 03:38:42;;;;;;;8.50;6.70;;;;;;;9.59;75.03;98913.23;130391;1267;108746;-76
2022/04/25 03:41:47;;;;;;;9.60;6.20;;;;;;;9.54;75.25;98917.81;130345;1267;108828;-76
2022/04/25 03:44:54;;;;;;;6.40;4.50;;;;;;;9.47;75.14;98920.73;130351;1267;108695;-76
2022/04/25 03:47:59;;;;;;;6.50;5.40;;;;;;;9.44;75.11;98929.37;130377;1267;108760;-76
2022/04/25 03:51:05;;;;;;;7.10;5.80;;;;;;;9.46;75.13;98926.68;130329;1267;109489;-76
2022/04/25 03:54:10;;;;;;;7.60;6.00;;;;;;;9.51;75.15;98934.60;130408;1267;108869;-76
2022/04/25 03:57:17;;;;;;;7.20;6.10;;;;;;;9.55;74.97;98935.89;130403;1267;108740;-76
2022/04/25 04:00:23;;;;;;;9.40;6.10;;;;;;;9.58;75.07;98937.17;130297;1267;108794;-76
2022/04/25 04:03:30;;;;;;;7.30;6.10;;;;;;;9.59;75.10;98941.53;130421;1267;109153;-76
2022/04/25 04:06:36;;;;;;;7.60;5.80;;;;;;;9.53;75.09;98950.06;130336;1267;108694;-76
2022/04/25 04:09:49;;;;;;;6.40;5.40;;;;;;;9.48;75.34;98948.27;130353;1267;108724;-77
2022/04/25 04:12:55;;;;;;;9.30;6.40;;;;;;;9.46;75.18;98948.68;130337;1267;107665;-76
2022/04/25 04:16:00;;;;;;;8.70;6.20;;;;;;;9.49;75.30;98950.63;130387;1267;108693;-75
2022/04/25 04:19:06;;;;;;;8.50;6.40;;;;;;;9.56;75.24;98948.40;130390;1267;107420;-75
2022/04/25 04:22:11;;;;;;;7.30;6.30;;;;;;;9.57;75.34;98946.66;130373;1268;108692;-76
2022/04/25 04:25:17;;;;;;;7.20;6.10;;;;;;;9.54;75.57;98950.75;130333;1267;108612;-76
2022/04/25 04:28:22;;;;;;;6.90;5.40;;;;;;;9.47;75.72;98957.66;130420;1267;108856;-76
2022/04/25 04:31:28;;;;;;;7.70;6.10;;;;;;;9.43;75.83;98962.65;130300;1267;108707;-76
2022/04/25 04:34:34;;;;;;;9.10;7.30;;;;;;;9.48;75.64;98963.55;130421;1268;106801;-76
2022/04/25 04:37:40;;;;;;;9.10;7.30;;;;;;;9.58;75.99;98962.23;130320;1267;108832;-76
2022/04/25 04:40:46;;;;;;;9.00;7.80;;;;;;;9.61;75.72;98965.58;130360;1267;108570;-78
2022/04/25 04:43:51;;;;;;;10.70;8.60;;;;;;;9.62;75.64;98962.08;130369;1267;108735;-75
2022/04/25 04:46:57;;;;;;;9.50;7.80;;;;;;;9.64;75.84;98964.23;130393;1267;108685;-74
2022/04/25 04:50:02;;;;;;;7.80;6.40;;;;;;;9.69;75.79;98963.21;130389;1267;108809;-78
2022/04/25 04:53:08;;;;;;;7.70;5.90;;;;;;;9.71;75.87;98968.69;130436;1267;108656;-74
2022/04/25 04:56:13;;;;;;;8.20;6.30;;;;;;;9.74;75.67;98970.51;130391;1267;108940;-76
2022/04/25 04:59:19;;;;;;;8.20;6.60;;;;;;;9.81;76.00;98965.91;130375;1267;108685;-78
2022/04/25 05:02:24;;;;;;;7.40;6.20;;;;;;;9.84;75.86;98967.31;130474;1268;108994;-78
2022/04/25 05:05:30;;;;;;;10.10;7.00;;;;;;;9.94;75.50;98972.27;130368;1267;108677;-77
2022/04/25 05:08:35;;;;;;;9.30;7.40;;;;;;;9.96;75.52;98975.91;130371;1267;107648;-77
2022/04/25 05:11:43;;;;;;;7.80;6.50;;;;;;;9.93;75.75;98977.84;130354;1267;108620;-77
2022/04/25 05:14:49;;;;;;;8.00;5.70;;;;;;;9.94;75.71;98990.38;130328;1267;109047;-77
2022/04/25 05:17:55;;;;;;;8.80;6.10;;;;;;;9.93;75.59;98991.59;130371;1267;108701;-78
2022/04/25 05:21:01;;;;;;;9.20;6.90;;;;;;;9.95;75.69;98988.80;130405;1266;108985;-77
2022/04/25 05:24:09;;;;;;;7.90;6.40;;;;;;;10.01;75.42;98986.16;130405;1268;108714;-77
2022/04/25 05:27:14;;;;;;;8.30;6.50;;;;;;;10.05;75.69;98989.59;130378;1267;108759;-78
2022/04/25 05:30:22;;;;;;;8.30;6.80;;;;;;;10.07;75.78;98989.86;130496;1268;109389;-77
2022/04/25 05:33:27;;;;;;;7.60;6.50;;;;;;;10.04;75.87;98994.33;130397;1267;108911;-78
2022/04/25 05:36:33;;;;;;;9.40;7.20;;;;;;;10.06;75.54;98999.14;130353;1267;108748;-77
2022/04/25 05:39:38;;;;;;;7.90;6.40;;;;;;;10.02;75.86;98995.60;130376;1268;108933;-77
2022/04/25 05:42:44;;;;;;;6.00;5.40;;;;;;;10.00;75.81;99002.05;130362;1268;108790;-77
2022/04/25 05:45:50;;;;;;;7.60;6.10;;;;;;;10.05;75.93;98998.46;130435;1268;108657;-77
2022/04/25 05:52:19;;;;;;;8.00;6.80;;;;;;;10.18;75.32;99005.45;130417;1268;108660;-77
2022/04/25 05:55:25;;;;;;;8.40;6.60;;;;;;;10.23;75.58;99010.16;130331;1268;108689;-77
2022/04/25 05:58:30;;;;;;;8.50;6.80;;;;;;;10.25;75.80;99009.98;130424;1268;108649;-78
2022/04/25 06:01:36;;;;;;;9.50;7.80;;;;;;;10.24;75.73;99015.25;130429;1268;108747;-77
2022/04/25 06:04:41;;;;;;;7.20;6.20;;;;;;;10.19;75.56;99012.40;130452;1268;108632;-77
2022/04/25 06:07:49;;;;;;;8.40;6.30;;;;;;;10.19;75.62;99016.49;130324;1268;107470;-77
2022/04/25 06:10:54;;;;;;;7.80;6.30;;;;;;;10.22;75.77;99024.36;130411;1266;108732;-78
2022/04/25 06:14:02;;;;;;;8.00;6.60;;;;;;;10.26;75.82;99025.83;130499;1268;108973;-77
2022/04/25 06:17:07;;;;;;;9.40;7.00;;;;;;;10.28;75.74;99026.52;130459;1267;108680;-77
2022/04/25 06:20:13;;;;;;;8.80;7.60;;;;;;;10.25;75.90;99024.17;130384;1268;108693;-77
2022/04/25 06:23:19;;;;;;;8.50;7.20;;;;;;;10.15;76.55;99035.95;130393;1268;108713;-77
2022/04/25 06:26:24;;;;;;;8.10;6.90;;;;;;;10.07;76.42;99034.30;130391;1268;108848;-77
2022/04/25 06:29:30;;;;;;;8.80;7.00;;;;;;;9.95;76.78;99034.27;130485;1268;109093;-77
2022/04/25 06:32:36;;;;;;;9.10;7.70;;;;;;;9.93;76.51;99034.69;130490;1268;108739;-77
2022/04/25 06:35:42;;;;;;;9.70;7.90;;;;;;;10.00;76.82;99035.63;130366;1267;108707;-77
2022/04/25 06:38:48;;;;;;;10.10;8.50;;;;;;;10.10;76.37;99038.98;130338;1267;108698;-78
2022/04/25 06:41:54;;;;;;;9.60;7.70;;;;;;;10.06;76.47;99033.67;130310;1267;108644;-76
2022/04/25 06:44:59;;;;;;;8.60;7.50;;;;;;;10.07;76.99;99036.77;130346;1268;108769;-81
2022/04/25 06:48:05;;;;;;;9.00;7.30;;;;;;;10.01;76.95;99036.98;130329;1268;108755;-78
2022/04/25 06:51:11;;;;;;;8.70;6.60;;;;;;;10.01;77.41;99037.58;130174;1268;107672;-78
2022/04/25 06:54:16;;;;;;;8.60;7.00;;;;;;;10.03;77.36;99035.27;130270;1270;108767;-78
2022/04/25 06:57:21;;;;;;;8.00;7.20;;;;;;;10.15;76.99;99037.26;130203;1268;108673;-76
2022/04/25 07:00:27;;;;;;;9.20;8.00;;;;;;;10.30;77.26;99031.73;130214;1268;108864;-76
2022/04/25 07:03:33;;;;;;;8.20;7.40;;;;;;;10.44;76.98;99031.59;130188;1271;108695;-77
2022/04/25 07:06:39;;;;;;;9.10;7.70;;;;;;;10.53;76.85;99030.50;130263;1269;108718;-77
2022/04/25 07:09:45;;;;;;;8.60;6.80;;;;;;;10.61;76.85;99032.16;130224;1270;108983;-77
2022/04/25 07:12:51;;;;;;;18.30;16.30;;;;;;;10.67;76.60;99035.95;130164;1271;108524;-77
2022/04/25 07:15:56;;;;;;;11.20;9.40;;;;;;;10.60;76.75;99037.70;130221;1268;108945;-77
2022/04/25 07:19:02;;;;;;;16.40;14.00;;;;;;;10.55;76.77;99041.23;130269;1269;108871;-77
2022/04/25 07:28:58;;;;;;;25.10;18.30;;;;;;;10.50;76.64;99051.50;130232;1268;108093;-77
2022/04/25 07:32:04;;;;;;;35.80;30.00;;;;;;;10.54;76.70;99055.86;130257;1268;108967;-77
2022/04/25 07:35:11;;;;;;;13.10;11.70;;;;;;;10.57;76.82;99058.52;130180;1270;107182;-77
2022/04/25 07:38:16;;;;;;;11.20;9.80;;;;;;;10.56;76.69;99057.50;130206;1268;108375;-77
2022/04/25 07:41:21;;;;;;;11.00;8.90;;;;;;;10.55;76.84;99058.91;130229;1269;108684;-77
2022/04/25 07:44:27;;;;;;;13.60;11.30;;;;;;;10.61;76.55;99060.56;130188;1269;108826;-78
2022/04/25 07:47:33;;;;;;;11.50;8.90;;;;;;;10.59;76.73;99067.80;130190;1271;108977;-78
2022/04/25 07:50:39;;;;;;;11.40;9.90;;;;;;;10.52;76.48;99072.58;130400;1268;108990;-77
2022/04/25 07:53:45;;;;;;;9.90;8.10;;;;;;;10.48;76.67;99073.59;130464;1268;108827;-77
2022/04/25 07:56:51;;;;;;;9.00;7.40;;;;;;;10.48;76.66;99078.55;130418;1268;108684;-76
2022/04/25 07:59:57;;;;;;;9.30;7.90;;;;;;;10.57;76.62;99084.44;130453;1268;108929;-78
2022/04/25 08:03:03;;;;;;;10.90;8.10;;;;;;;10.60;76.48;99087.52;130438;1268;107126;-78
2022/04/25 08:06:11;;;;;;;9.50;8.20;;;;;;;10.70;76.30;99087.77;130388;1268;108917;-77
2022/04/25 08:09:17;;;;;;;17.40;12.50;;;;;;;10.76;76.23;99089.81;130423;1268;108695;-77
2022/04/25 08:19:09;;;;;;;20.60;13.30;;;;;;;10.71;76.42;99096.70;130375;1268;108737;-78
2022/04/25 08:22:15;;;;;;;10.80;8.40;;;;;;;10.75;76.59;99102.39;130372;1268;108794;-78
2022/04/25 08:25:20;;;;;;;11.50;9.60;;;;;;;10.73;76.59;99101.54;130370;1268;108801;-77
2022/04/25 08:28:26;;;;;;;9.30;8.30;;;;;;;10.78;76.66;99105.67;130430;1267;108848;-77
2022/04/25 08:31:31;;;;;;;11.90;9.20;;;;;;;10.81;76.38;99110.00;130393;1268;108642;-77
2022/04/25 08:34:37;;;;;;;10.40;9.10;;;;;;;10.82;76.19;99108.70;130368;1267;108783;-77
2022/04/25 08:37:43;;;;;;;11.60;8.70;;;;;;;10.76;76.35;99113.70;130492;1268;108636;-77
2022/04/25 08:40:50;;;;;;;11.10;8.40;;;;;;;10.73;76.39;99122.63;130402;1268;108665;-77
2022/04/25 08:43:57;;;;;;;9.10;7.70;;;;;;;10.65;76.12;99126.00;130347;1267;108738;-77
2022/04/25 08:47:03;;;;;;;11.10;9.00;;;;;;;10.62;76.24;99126.33;130368;1268;109064;-77
2022/04/25 08:50:09;;;;;;;12.40;9.30;;;;;;;10.69;76.34;99129.50;130389;1268;108856;-77
2022/04/25 08:53:16;;;;;;;11.60;8.40;;;;;;;10.80;76.28;99132.73;130382;1268;108901;-77
2022/04/25 08:56:25;;;;;;;11.40;8.90;;;;;;;10.86;76.16;99132.15;130434;1268;108858;-77
2022/04/25 08:59:33;;;;;;;11.50;9.30;;;;;;;10.80;76.22;99135.06;130485;1268;108549;-77
2022/04/25 09:02:39;;;;;;;12.60;9.80;;;;;;;10.80;75.97;99138.46;130462;1268;108829;-77
2022/04/25 09:05:44;;;;;;;45.90;28.50;;;;;;;10.81;76.39;99145.30;130358;1268;109239;-77
2022/04/25 09:08:50;;;;;;;11.80;9.10;;;;;;;10.79;75.96;99146.75;130341;1268;108781;-77
2022/04/25 09:12:12;;;;;;;11.30;8.90;;;;;;;10.80;76.26;99151.10;130411;1268;108713;-77
2022/04/25 09:15:21;;;;;;;13.40;12.00;;;;;;;10.83;75.94;99153.13;130363;1267;107612;-76
2022/04/25 09:18:27;;;;;;;11.40;9.90;;;;;;;10.82;76.18;99157.95;130378;1268;108683;-78
2022/04/25 09:21:40;;;;;;;12.50;9.10;;;;;;;10.80;76.30;99164.08;130492;1268;107829;-76
2022/04/25 09:24:46;;;;;;;10.30;8.50;;;;;;;10.78;76.19;99171.04;130413;1268;107444;-77
2022/04/25 09:28:09;;;;;;;11.10;8.60;;;;;;;10.73;76.03;99169.05;130510;1268;108634;-77
2022/04/25 09:31:17;;;;;;;10.80;7.60;;;;;;;10.72;76.33;99174.63;130369;1268;108671;-77
2022/04/25 09:37:45;;;;;;;9.40;7.70;;;;;;;10.54;76.59;99177.61;130540;1268;108715;-80
2022/04/25 09:40:52;;;;;;;9.10;7.70;;;;;;;10.61;76.24;99181.13;130530;1268;108686;-77
2022/04/25 09:44:00;;;;;;;11.90;8.60;;;;;;;10.69;76.14;99181.60;130377;1268;108948;-77
2022/04/25 09:47:08;;;;;;;10.10;8.50;;;;;;;10.73;76.59;99184.35;130430;1268;108777;-77
2022/04/25 09:50:16;;;;;;;9.80;8.30;;;;;;;10.75;76.41;99187.41;130516;1268;108803;-77
2022/04/25 09:53:22;;;;;;;19.50;16.20;;;;;;;10.77;76.46;99199.13;130398;1268;108757;-77
2022/04/25 09:56:30;;;;;;;10.40;8.70;;;;;;;10.80;75.96;99202.55;130374;1268;108693;-77
2022/04/25 09:59:47;;;;;;;7.50;5.80;;;;;;;10.78;76.37;99202.20;130408;1268;108776;-77
2022/04/25 10:02:52;;;;;;;7.80;6.70;;;;;;;10.72;76.03;99203.77;130496;1267;108889;-77
2022/04/25 10:06:02;;;;;;;7.30;6.50;;;;;;;10.78;76.54;99203.09;130467;1268;109039;-77
2022/04/25 10:09:08;;;;;;;8.00;6.50;;;;;;;10.91;76.44;99204.64;130368;1268;108219;-76
2022/04/25 10:12:14;;;;;;;7.90;7.00;;;;;;;11.03;76.34;99205.52;130499;1267;108748;-76
2022/04/25 10:15:20;;;;;;;9.60;7.40;;;;;;;11.00;76.07;99207.13;130510;1267;107644;-77
2022/04/25 10:18:28;;;;;;;13.50;8.40;;;;;;;10.90;76.47;99209.60;130445;1268;108724;-77
2022/04/25 10:21:37;;;;;;;60.10;45.70;;;;;;;10.82;76.85;99207.46;130410;1268;108618;-77
2022/04/25 10:24:45;;;;;;;11.20;8.60;;;;;;;10.81;76.78;99209.30;130440;1268;108678;-77
2022/04/25 10:27:52;;;;;;;9.50;7.90;;;;;;;10.90;76.53;99208.09;130577;1268;108664;-78
2022/04/25 10:31:05;;;;;;;13.20;11.00;;;;;;;11.04;76.63;99208.83;130479;1268;107678;-77
2022/04/25 10:34:14;;;;;;;12.00;10.00;;;;;;;11.17;76.72;99207.59;130515;1268;108660;-77
2022/04/25 10:37:33;;;;;;;8.90;7.60;;;;;;;11.26;76.54;99207.96;130472;1267;108528;-77
2022/04/25 10:44:49;;;;;;;10.90;8.20;;;;;;;11.22;76.41;99209.85;130465;1267;108675;-77
2022/04/25 10:47:59;;;;;;;10.20;8.10;;;;;;;11.20;76.60;99210.80;130465;1268;107095;-77
2022/04/25 10:51:13;;;;;;;9.00;7.70;;;;;;;11.22;76.76;99212.02;130446;1268;108783;-77
2022/04/25 10:54:23;;;;;;;30.50;21.40;;;;;;;11.28;76.73;99215.93;130362;1268;108366;-77
2022/04/25 10:57:28;;;;;;;15.10;11.10;;;;;;;11.48;76.95;99209.63;130355;1268;108958;-77
2022/04/25 11:00:56;;;;;;;10.90;8.40;;;;;;;11.63;76.87;99215.14;130349;1269;108848;-77
2022/04/25 11:04:14;;;;;;;80.80;41.20;;;;;;;11.63;76.41;99215.77;130224;1268;236671;-77
2022/04/25 11:07:24;;;;;;;18.40;11.20;;;;;;;11.68;76.47;99221.55;130443;1267;107708;-77
2022/04/25 11:10:46;;;;;;;11.00;7.80;;;;;;;11.73;76.37;99224.86;130489;1268;108737;-77
2022/04/25 11:14:07;;;;;;;;;;;;;;;11.63;76.10;99225.38;130505;1269;108849;-77
2022/04/25 11:17:15;;;;;;;9.30;6.30;;;;;;;11.60;76.58;99229.73;130441;1268;108719;-77
2022/04/25 11:20:57;;;;;;;81.40;41.80;;;;;;;11.66;76.09;99231.30;130489;1267;108721;-77
2022/04/25 11:24:04;;;;;;;17.80;10.80;;;;;;;11.85;75.84;99238.98;130484;1268;108616;-78
2022/04/25 11:27:11;;;;;;;14.00;9.40;;;;;;;11.91;75.42;99238.84;130517;1268;108616;-78
2022/04/25 11:30:20;;;;;;;8.20;6.40;;;;;;;11.90;75.49;99243.36;130427;1268;108587;-78
2022/04/25 11:33:26;;;;;;;7.90;6.10;;;;;;;11.83;75.61;99244.29;130497;1268;107824;-77
2022/04/25 11:36:37;;;;;;;106.70;48.90;;;;;;;11.69;75.23;99248.15;130381;1268;107686;-77
2022/04/25 11:39:55;;;;;;;29.30;20.50;;;;;;;11.54;75.42;99255.22;130375;1268;108762;-77
2022/04/25 11:43:03;;;;;;;12.60;8.50;;;;;;;11.55;75.26;99254.13;130394;1267;108833;-77
2022/04/25 11:46:10;;;;;;;15.20;10.40;;;;;;;11.80;75.37;99257.35;130551;1268;108677;-77
2022/04/25 11:49:26;;;;;;;24.40;17.00;;;;;;;12.20;75.28;99253.13;130540;1268;107824;-75
2022/04/25 11:52:31;;;;;;;9.90;7.90;;;;;;;12.55;74.66;99255.98;130493;1268;108936;-76
2022/04/25 11:55:38;;;;;;;8.60;7.00;;;;;;;12.63;73.93;99257.09;130537;1268;108716;-77
2022/04/25 11:58:44;;;;;;;17.00;11.40;;;;;;;12.68;73.90;99254.47;130553;1268;108634;-78
2022/04/25 12:01:51;;;;;;;11.20;8.60;;;;;;;12.64;73.96;99254.38;130519;1267;108744;-77
2022/04/25 12:04:56;;;;;;;13.00;9.10;;;;;;;12.55;73.47;99251.61;130543;1267;108837;-78
2022/04/25 12:18:21;;;;;;;8.50;6.40;;;;;;;12.70;73.34;99260.89;130402;1268;108475;-78
2022/04/25 12:21:27;;;;;;;8.10;5.90;;;;;;;12.74;72.88;99263.91;130452;1268;108743;-76
2022/04/25 12:24:33;;;;;;;9.90;6.40;;;;;;;12.67;72.74;99262.48;130597;1268;108755;-77
2022/04/25 12:27:38;;;;;;;9.00;6.90;;;;;;;12.62;72.35;99267.94;130574;1268;108742;-76
2022/04/25 12:30:49;;;;;;;7.60;6.00;;;;;;;12.66;72.35;99267.79;130414;1268;108701;-76
2022/04/25 12:33:55;;;;;;;6.50;5.20;;;;;;;12.84;73.00;99269.65;130417;1268;108676;-76
2022/04/25 12:37:01;;;;;;;15.40;10.60;;;;;;;12.96;72.41;99271.55;130385;1268;107687;-76
2022/04/25 12:40:07;;;;;;;11.10;7.00;;;;;;;12.98;72.19;99269.11;130435;1268;108541;-76
2022/04/25 12:43:13;;;;;;;11.70;8.60;;;;;;;13.03;71.76;99272.52;130498;1268;108754;-76
2022/04/25 12:46:34;;;;;;;7.80;6.20;;;;;;;12.99;72.00;99277.48;130516;1268;107117;-76
2022/04/25 12:49:43;;;;;;;23.90;19.60;;;;;;;12.92;71.81;99277.79;130403;1268;108898;-76
2022/04/25 12:52:50;;;;;;;19.80;16.40;;;;;;;12.73;71.14;99284.80;130332;1268;108733;-76
2022/04/25 12:55:56;;;;;;;8.90;7.60;;;;;;;12.57;71.29;99288.70;130364;1267;108861;-76
2022/04/25 12:59:01;;;;;;;10.70;9.60;;;;;;;12.43;71.50;99289.19;130364;1268;109666;-76
2022/04/25 13:02:11;;;;;;;7.60;6.60;;;;;;;12.35;71.54;99286.89;130389;1268;108832;-77
2022/04/25 13:05:17;;;;;;;7.70;6.80;;;;;;;12.27;71.42;99286.91;130392;1268;108734;-76
2022/04/25 13:08:22;;;;;;;9.10;6.70;;;;;;;12.24;71.97;99285.27;130397;1268;108823;-76
2022/04/25 13:11:28;;;;;;;7.90;5.90;;;;;;;12.35;71.48;99286.27;130399;1268;108707;-76
2022/04/25 13:14:34;;;;;;;7.00;5.90;;;;;;;12.46;71.27;99291.36;130375;1268;108647;-76
2022/04/25 13:17:40;;;;;;;6.40;5.30;;;;;;;12.59;71.40;99289.29;130386;1268;108673;-77
2022/04/25 13:20:45;;;;;;;7.50;6.50;;;;;;;12.82;70.98;99289.02;130577;1268;108802;-76
2022/04/25 13:23:51;;;;;;;8.90;5.90;;;;;;;12.92;70.33;99290.44;130367;1268;108812;-76
2022/04/25 13:26:57;;;;;;;6.70;6.00;;;;;;;13.03;70.72;99289.01;130399;1268;108811;-76
2022/04/25 13:30:03;;;;;;;7.30;6.30;;;;;;;13.15;69.77;99287.50;130427;1266;108721;-76
2022/04/25 13:33:09;;;;;;;7.70;6.00;;;;;;;13.05;69.71;99291.63;130558;1267;108891;-76
2022/04/25 13:36:15;;;;;;;8.40;6.50;;;;;;;12.88;68.90;99296.69;130452;1268;108764;-76
2022/04/25 13:39:21;;;;;;;7.70;6.80;;;;;;;12.60;70.35;99303.09;130486;1268;108769;-76
2022/04/25 13:42:27;;;;;;;7.40;6.00;;;;;;;12.55;70.68;99309.62;130570;1268;108649;-75
2022/04/25 13:45:32;;;;;;;7.70;6.40;;;;;;;12.44;70.72;99311.68;130484;1267;108913;-75
2022/04/25 13:48:38;;;;;;;8.00;6.50;;;;;;;12.26;70.51;99318.05;130458;1268;108729;-75
2022/04/25 13:51:43;;;;;;;9.50;8.20;;;;;;;12.14;70.89;99321.41;130546;1268;109808;-73
2022/04/25 13:54:49;;;;;;;9.70;8.20;;;;;;;12.06;70.79;99325.55;130582;1268;108821;-77
2022/04/25 13:57:54;;;;;;;11.00;8.50;;;;;;;12.00;70.72;99325.79;130481;1268;108822;-77
2022/04/25 14:01:00;;;;;;;11.10;8.60;;;;;;;11.86;70.09;99333.80;130463;1268;108809;-75
2022/04/25 14:04:06;;;;;;;12.00;9.50;;;;;;;11.63;70.59;99336.28;130488;1267;108999;-75
2022/04/25 14:07:11;;;;;;;10.80;9.40;;;;;;;11.53;70.76;99342.09;130480;1268;108700;-76
2022/04/25 14:10:17;;;;;;;13.60;9.90;;;;;;;11.46;71.01;99342.55;130371;1268;108791;-75
2022/04/25 14:13:24;;;;;;;12.90;9.40;;;;;;;11.40;71.30;99343.70;130472;1268;108690;-75
2022/04/25 14:16:30;;;;;;;11.00;8.50;;;;;;;11.38;71.65;99353.20;130476;1267;108828;-75
2022/04/25 14:19:35;;;;;;;9.70;7.60;;;;;;;11.36;71.56;99359.33;130335;1268;108665;-75
2022/04/25 14:22:41;;;;;;;8.70;7.60;;;;;;;11.36;71.67;99366.27;130369;1268;108830;-75
2022/04/25 14:25:46;;;;;;;12.30;8.50;;;;;;;11.40;71.44;99369.58;130343;1268;109771;-76
2022/04/25 14:28:53;;;;;;;10.60;9.10;;;;;;;11.41;71.84;99368.74;130492;1268;108866;-75
2022/04/25 14:31:59;;;;;;;12.40;9.70;;;;;;;11.34;71.86;99374.70;130639;1268;109092;-79
2022/04/25 14:35:06;;;;;;;13.60;10.80;;;;;;;11.19;72.63;99381.46;130488;1266;108595;-78
2022/04/25 14:38:13;;;;;;;12.00;10.00;;;;;;;11.05;72.41;99376.42;130703;1266;108579;-76
2022/04/25 14:41:18;;;;;;;11.00;8.20;;;;;;;11.00;72.51;99377.69;130394;1268;108822;-75
2022/04/25 14:44:25;;;;;;;11.20;8.90;;;;;;;11.02;72.18;99380.95;130593;1268;108638;-78
2022/04/25 14:47:30;;;;;;;13.50;10.40;;;;;;;11.05;71.95;99380.59;130744;1268;108818;-77
2022/04/25 14:57:23;;;;;;;14.30;11.00;;;;;;;11.08;72.11;99376.81;130598;1268;108852;-78
2022/04/25 15:00:29;;;;;;;14.60;11.80;;;;;;;11.09;72.32;99376.88;130528;1268;108691;-76